Für Piloten

!! Achtung: Unser Flugplatz ist auf Grund umfangreicher Befestigungsarbeiten an Start- und Landebahn bis ca. April 2020 gesperrt!!

Informationen für Piloten zum Flugplatz Borken-Hoxfeld
Hier findest Du alle relevanten Informationen, die Du als Pilot benötigst, um Borken-Hoxfeld anzufliegen.

Flugplatz: Borken-Hoxfeld ICAO-Code: EDLY
Borken-Hoxfeld Info: 122,930 Mhz
GAFOR Gebiet: 32
Platzrunde: Motorflug; -> Südplatzrunde; Segelflug; -> Nordplatzrunde;
Landegebühr: z.Zt. 5,00 Euro
Platzhöhe: 48m üMSL
Pisten: 12/30 – 740 m x 30 m, GRAS
Betriebszeiten: PPR (in den Sommermonaten Mittagspause beachten)

 

Wetterforecast:

Available data for EDDL from the past 2 hours
DUESSELDORF
Metar
EDDL 081120Z 29003KT 250V340 CAVOK 24/08 Q1024 NOSIG

11:20 UTC

Wind: 290° 3kt

Visibility:

Sky:

Temp: 24 deg C / 75.2 deg F

Dewpoint: 8 deg C / 46.4 deg F

Pressure: 1024 hPa

TAF
TAF EDDL 080500Z 0806/0912 17005KT CAVOK BECMG 0810/0813 27005KT BECMG 0816/0818 VRB03KT

Alle obigen Informationen ersetzen nicht die vorgeschriebene, persönliche Flugvorbereitung.